Accueil
METAR-TAF:

METAR-TAF

Aéroports :

Castres, France

Aéroport de Castres-Mazamet

latitude: 43-33-25N, longitude: 2-17-21E, altitude: 239 m

Observation

Le bulletin a été fait il y a 23 minutes, à 09:30 UTC
Vent 3 kt de nord-ouest, variant entre ouest/sud-ouest et nord
Température 25°C
Humidité 61%
Pression 1022 hPa
Visibilité 10 km ou plus
Quelques nuages à une hauteur de 2700 ft

METAR: LFCK 170930Z AUTO 31003KT 250V010 9999 FEW027 25/17 Q1022 NOSIG

Heure: 11:53 (09:53 UTC)

Prévision

Le bulletin a été fait il y a 1 heure et 53 minutes, à 08:00 UTC
Prévision valable du 17 à 09 UTC au 17 à 18 UTC
Vent 4 kt de nord-ouest
Visibilité 10 km ou plus
pas de nuages en-dessous de 1500 mètres et pas de cumulonimbus.

TAF: LFCK 170800Z 1709/1718 32004KT CAVOK

Observations et prévisions météorologiques de plus de 4000 aéroports (messages METAR et TAF).

Les stations disponibles sont représentées par des disques jaunes et rouges sur la carte.

Passer la souris dessus pour voir le nom de la station.

Cliquer dessus pour voir les observations et prévisions météorologiques.

Pour changer de carte: cliquez sur les boutons verts avec une croix noire pour zoomer, sur le bouton vert avec un tiret pour effectuer un zoom arrière, ou sur les flèches vertes pour les cartes adjacentes.


METAR-TAF: